Time;durP1;ratioP1;P1;durP2;ratioP2;P2;SDS_P1;SDS_P2;PMS_P1;PMS_P2;Temp;Humidity;BMP_temperature;BMP_pressure;BME280_temperature;BME280_humidity;BME280_pressure;Samples;Min_cycle;Max_cycle;Signal;HPM_P1;HPM_P2
2021/12/05 00:19:40;;;;;;;4.73;2.20;;;;;;;-145.69;100.00;71895.91;5113666;28;20208;-75
2021/12/05 00:22:15;;;;;;;8.47;2.20;;;;;;;-145.69;100.00;71895.91;5109236;28;20204;-75
2021/12/05 00:24:45;;;;;;;8.77;2.93;;;;;;;-145.69;100.00;71891.94;5113053;28;20274;-75
2021/12/05 00:27:17;;;;;;;8.47;2.30;;;;;;;-145.69;100.00;71893.91;5113315;28;20197;-75
2021/12/05 00:29:51;;;;;;;7.57;2.40;;;;;;;-145.69;100.00;71897.91;5113416;28;20197;-75
2021/12/05 00:32:25;;;;;;;7.17;2.13;;;;;;;-145.69;100.00;71903.88;5112991;28;20580;-75
2021/12/05 00:40:59;;;;;;;3.83;1.90;;;;;;;-145.69;100.00;71893.91;5113361;27;20602;-75
2021/12/05 01:00:11;;;;;;;7.00;1.47;;;;;;;-145.69;100.00;71943.69;5113253;28;20203;-74
2021/12/05 01:02:48;;;;;;;8.67;1.47;;;;;;;-145.69;100.00;71949.66;5113248;28;20196;-74
2021/12/05 01:05:47;;;;;;;10.63;1.87;;;;;;;-145.69;100.00;71943.69;5113039;28;20237;-74
2021/12/05 01:08:35;;;;;;;9.17;1.60;;;;;;;-145.69;100.00;71935.72;5113088;28;20198;-75
2021/12/05 01:11:26;;;;;;;6.80;1.80;;;;;;;-145.69;100.00;71927.75;5111643;28;20759;-75
2021/12/05 01:14:09;;;;;;;4.10;1.43;;;;;;;-145.69;100.00;71935.72;5112845;28;20251;-74
2021/12/05 01:16:36;;;;;;;5.60;2.70;;;;;;;-145.69;100.00;71935.72;5112981;28;20230;-75
2021/12/05 01:19:04;;;;;;;5.30;2.03;;;;;;;-145.69;100.00;71937.69;5112927;28;20202;-74
2021/12/05 01:21:32;;;;;;;3.90;1.77;;;;;;;-145.69;100.00;71939.69;5112357;28;20306;-75
2021/12/05 01:24:05;;;;;;;9.37;1.77;;;;;;;-145.69;100.00;71935.72;5112441;28;20264;-75
2021/12/05 01:26:38;;;;;;;8.40;1.73;;;;;;;-145.69;100.00;71951.63;5112795;28;20201;-75
2021/12/05 01:29:18;;;;;;;7.73;1.90;;;;;;;-145.69;100.00;71939.69;5113805;28;20202;-74
2021/12/05 01:31:56;;;;;;;6.57;1.47;;;;;;;-145.69;100.00;71943.69;5116609;28;20193;-75
2021/12/05 01:34:43;;;;;;;4.47;1.90;;;;;;;-145.69;100.00;71939.69;5118913;27;20208;-74
2021/12/05 01:37:20;;;;;;;6.27;1.53;;;;;;;-145.69;100.00;71945.66;5116553;28;20332;-74
2021/12/05 01:40:05;;;;;;;9.73;1.77;;;;;;;-145.69;100.00;71943.69;5116461;28;20551;-75
2021/12/05 01:51:48;;;;;;;4.70;1.60;;;;;;;-145.69;100.00;71945.66;5073191;28;20245;-75
2021/12/05 01:57:36;;;;;;;7.47;1.70;;;;;;;-145.69;100.00;71941.69;5115789;28;20540;-74
2021/12/05 02:07:40;;;;;;;5.83;1.53;;;;;;;-145.69;100.00;71947.66;5081808;28;20200;-74
2021/12/05 02:08:54;;;;;;;4.97;1.50;;;;;;;-145.69;100.00;71943.69;5115882;28;20720;-75
2021/12/05 02:31:08;;;;;;;5.40;1.43;;;;;;;-145.69;100.00;71911.84;5070554;28;20223;-75
2021/12/05 02:36:52;;;;;;;2.30;1.17;;;;;;;-145.69;100.00;71911.84;5115259;28;20247;-75
2021/12/05 02:39:33;;;;;;;7.93;1.50;;;;;;;-145.69;100.00;71911.84;5115110;28;20675;-75
2021/12/05 02:42:08;;;;;;;10.97;1.60;;;;;;;-145.69;100.00;71903.88;5115283;28;20194;-75
2021/12/05 02:44:36;;;;;;;3.63;1.30;;;;;;;-145.69;100.00;71903.88;5115245;28;20229;-75
2021/12/05 02:47:07;;;;;;;6.90;1.43;;;;;;;-145.69;100.00;71899.88;5114939;28;20201;-74
2021/12/05 02:49:40;;;;;;;7.97;1.50;;;;;;;-145.69;100.00;71895.91;5114966;28;20197;-75
2021/12/05 02:52:10;;;;;;;6.03;1.40;;;;;;;-145.69;100.00;71889.94;5115107;28;20204;-75
2021/12/05 02:54:42;;;;;;;3.70;1.27;;;;;;;-145.69;100.00;71891.94;5115153;28;20199;-74
2021/12/05 02:57:09;;;;;;;7.33;1.53;;;;;;;-145.69;100.00;71883.97;5114801;28;20611;-75
2021/12/05 02:59:44;;;;;;;10.10;1.70;;;;;;;-145.69;100.00;71883.97;5114721;28;20212;-74
2021/12/05 03:02:15;;;;;;;4.00;1.27;;;;;;;-145.69;100.00;71887.94;5114580;28;20197;-75
2021/12/05 03:04:46;;;;;;;8.27;1.20;;;;;;;-145.69;100.00;71891.94;5114560;28;20231;-74
2021/12/05 03:07:15;;;;;;;6.37;1.53;;;;;;;-145.69;100.00;71883.97;5114706;28;20197;-75
2021/12/05 03:09:45;;;;;;;6.77;1.50;;;;;;;-145.69;100.00;71887.94;5114763;28;20208;-75
2021/12/05 03:12:17;;;;;;;7.30;2.17;;;;;;;-145.69;100.00;71887.94;5114533;28;20254;-75
2021/12/05 03:14:44;;;;;;;8.20;1.40;;;;;;;-145.69;100.00;71887.94;5114386;28;20197;-75
2021/12/05 03:17:11;;;;;;;11.30;1.60;;;;;;;-145.69;100.00;71876.00;5114581;28;20201;-74
2021/12/05 03:19:37;;;;;;;5.50;1.80;;;;;;;-145.69;100.00;71872.03;5114302;28;20197;-75
2021/12/05 03:22:04;;;;;;;4.20;1.50;;;;;;;-145.69;100.00;71880.00;5114578;28;20204;-75
2021/12/05 03:24:32;;;;;;;6.43;1.43;;;;;;;-145.69;100.00;71872.03;5114340;28;20232;-74
2021/12/05 03:27:00;;;;;;;5.23;1.73;;;;;;;-145.69;100.00;71878.00;5116642;27;20197;-75
2021/12/05 03:29:26;;;;;;;7.57;1.20;;;;;;;-145.69;100.00;71883.97;5114114;28;20209;-75
2021/12/05 03:31:54;;;;;;;5.70;1.40;;;;;;;-145.69;100.00;71887.94;5114190;28;20246;-75
2021/12/05 03:34:21;;;;;;;4.30;1.30;;;;;;;-145.69;100.00;71883.97;5114261;28;20593;-75
2021/12/05 03:36:52;;;;;;;6.60;1.10;;;;;;;-145.69;100.00;71883.97;5114049;28;20713;-74
2021/12/05 03:39:19;;;;;;;5.47;1.37;;;;;;;-145.69;100.00;71887.94;5112734;28;20752;-75
2021/12/05 03:41:47;;;;;;;6.87;1.30;;;;;;;-145.69;100.00;71885.97;5113876;28;20258;-74
2021/12/05 03:44:19;;;;;;;11.27;1.20;;;;;;;-145.69;100.00;71887.94;5113782;28;20691;-75
2021/12/05 03:46:47;;;;;;;3.43;1.33;;;;;;;-145.69;100.00;71891.94;5114040;28;20201;-75
2021/12/05 03:49:14;;;;;;;3.73;1.30;;;;;;;-145.69;100.00;71889.94;5114019;28;20197;-75
2021/12/05 03:51:49;;;;;;;6.17;1.23;;;;;;;-145.69;100.00;71887.94;5113317;28;20215;-75
2021/12/05 03:54:15;;;;;;;5.27;1.30;;;;;;;-145.69;100.00;71878.00;5113651;28;20212;-75
2021/12/05 03:56:42;;;;;;;4.30;1.07;;;;;;;-145.69;100.00;71881.97;5113758;28;20574;-75
2021/12/05 03:59:11;;;;;;;2.80;1.40;;;;;;;-145.69;100.00;71876.00;5113773;28;20205;-74
2021/12/05 04:01:40;;;;;;;8.70;1.43;;;;;;;-145.69;100.00;71878.00;5113766;28;20197;-74
2021/12/05 04:04:08;;;;;;;3.37;1.50;;;;;;;-145.69;100.00;71876.00;5113603;28;20228;-75
2021/12/05 04:06:35;;;;;;;4.30;1.40;;;;;;;-145.69;100.00;71876.00;5113767;28;20251;-75
2021/12/05 04:09:06;;;;;;;5.17;1.40;;;;;;;-145.69;100.00;71876.00;5113455;28;20201;-74
2021/12/05 04:11:36;;;;;;;10.57;1.70;;;;;;;-145.69;100.00;71878.00;5113667;28;20197;-74
2021/12/05 04:14:05;;;;;;;5.43;1.40;;;;;;;-145.69;100.00;71872.03;5113635;28;20204;-74
2021/12/05 04:16:32;;;;;;;5.00;1.90;;;;;;;-145.69;100.00;71876.00;5113519;28;20559;-74
2021/12/05 04:19:01;;;;;;;5.90;1.70;;;;;;;-145.69;100.00;71881.97;5113472;28;20246;-75
2021/12/05 04:21:29;;;;;;;4.50;1.20;;;;;;;-145.69;100.00;71878.00;5113166;28;20229;-74
2021/12/05 04:23:57;;;;;;;2.23;1.10;;;;;;;-145.69;100.00;71880.00;5113630;28;20235;-75
2021/12/05 04:26:24;;;;;;;7.40;1.43;;;;;;;-145.69;100.00;71883.97;5113558;28;20201;-75
2021/12/05 04:28:52;;;;;;;2.60;1.20;;;;;;;-145.69;100.00;71876.00;5113428;28;20205;-75
2021/12/05 04:31:21;;;;;;;7.00;1.30;;;;;;;-145.69;100.00;71876.00;5113313;28;20208;-75
2021/12/05 04:33:48;;;;;;;6.20;1.23;;;;;;;-145.69;100.00;71868.06;5113128;28;20201;-75
2021/12/05 04:36:17;;;;;;;3.67;1.37;;;;;;;-145.69;100.00;71874.03;5113564;28;20197;-75
2021/12/05 04:38:43;;;;;;;4.00;1.40;;;;;;;-145.69;100.00;71874.03;5113403;28;20193;-75
2021/12/05 04:41:10;;;;;;;4.87;1.50;;;;;;;-145.69;100.00;71872.03;5113350;28;20590;-75
2021/12/05 04:43:38;;;;;;;11.43;1.60;;;;;;;-145.69;100.00;71870.03;5113160;28;20205;-75
2021/12/05 04:46:05;;;;;;;7.53;1.30;;;;;;;-145.69;100.00;71868.06;5112949;28;20320;-75
2021/12/05 04:48:33;;;;;;;4.57;1.07;;;;;;;-145.69;100.00;71874.03;5113183;28;20216;-75
2021/12/05 04:51:01;;;;;;;5.70;1.30;;;;;;;-145.69;100.00;71866.06;5112155;28;20338;-75
2021/12/05 04:53:28;;;;;;;2.83;1.20;;;;;;;-145.69;100.00;71876.00;5113138;28;20220;-75
2021/12/05 04:55:56;;;;;;;3.80;1.20;;;;;;;-145.69;100.00;71876.00;5113180;28;20202;-75
2021/12/05 04:58:22;;;;;;;7.73;1.37;;;;;;;-145.69;100.00;71874.03;5113263;28;20261;-75
2021/12/05 05:00:49;;;;;;;8.43;1.40;;;;;;;-145.69;100.00;71878.00;5113111;28;20205;-75
2021/12/05 05:03:17;;;;;;;3.67;1.17;;;;;;;-145.69;100.00;71874.03;5113525;28;20266;-75
2021/12/05 05:05:50;;;;;;;9.13;2.47;;;;;;;-145.69;100.00;71860.09;5117016;28;20316;-75
2021/12/05 05:08:17;;;;;;;5.43;2.03;;;;;;;-145.69;100.00;71864.06;5117042;28;20201;-75
2021/12/05 05:10:45;;;;;;;2.10;1.40;;;;;;;-145.69;100.00;71862.06;5117072;28;20201;-75
2021/12/05 05:13:12;;;;;;;4.60;1.13;;;;;;;-145.69;100.00;71868.06;5116888;28;20598;-76
2021/12/05 05:15:38;;;;;;;6.97;1.47;;;;;;;-145.69;100.00;71876.00;5116700;28;20197;-75
2021/12/05 05:18:06;;;;;;;7.50;1.20;;;;;;;-145.69;100.00;71880.00;5117041;28;20258;-75
2021/12/05 05:20:37;;;;;;;2.70;1.37;;;;;;;-145.69;100.00;71878.00;5116598;28;20312;-75
2021/12/05 05:29:01;;;;;;;2.37;1.50;;;;;;;-145.69;100.00;71872.03;5098730;28;20204;-75
2021/12/05 05:40:07;;;;;;;2.70;1.00;;;;;;;-145.69;100.00;71840.19;5116513;28;20200;-75
2021/12/05 05:48:30;;;;;;;6.07;1.30;;;;;;;-145.69;100.00;71864.06;5114253;28;20674;-75
2021/12/05 05:50:57;;;;;;;4.87;1.27;;;;;;;-145.69;100.00;71870.03;5116252;28;20284;-75
2021/12/05 05:53:24;;;;;;;5.70;1.13;;;;;;;-145.69;100.00;71864.06;5116496;28;20202;-75
2021/12/05 05:55:52;;;;;;;3.50;1.37;;;;;;;-145.69;100.00;71868.06;5116563;28;20205;-75
2021/12/05 05:58:23;;;;;;;1.53;1.10;;;;;;;-145.69;100.00;71874.03;5116267;28;20201;-75
2021/12/05 06:01:00;;;;;;;1.77;1.20;;;;;;;-145.69;100.00;71874.03;5116228;28;20413;-76
2021/12/05 06:03:27;;;;;;;5.93;1.10;;;;;;;-145.69;100.00;71868.06;5116007;27;20209;-75
2021/12/05 06:06:04;;;;;;;6.53;1.10;;;;;;;-145.69;100.00;71878.00;5114782;28;20225;-75
2021/12/05 06:08:32;;;;;;;7.47;1.73;;;;;;;-145.69;100.00;71872.03;5116012;28;20212;-76
2021/12/05 06:11:01;;;;;;;3.30;1.63;;;;;;;-145.69;100.00;71876.00;5113179;28;20209;-76
2021/12/05 06:13:30;;;;;;;5.20;1.90;;;;;;;-145.69;100.00;71866.06;5112935;28;20197;-76
2021/12/05 06:15:58;;;;;;;8.53;2.03;;;;;;;-145.69;100.00;71866.06;5113989;28;20556;-75
2021/12/05 06:18:25;;;;;;;9.50;2.50;;;;;;;-145.69;100.00;71868.06;5115623;28;20224;-76
2021/12/05 06:20:52;;;;;;;6.87;2.70;;;;;;;-145.69;100.00;71872.03;5115353;28;20236;-75
2021/12/05 06:23:19;;;;;;;8.17;2.93;;;;;;;-145.69;100.00;71872.03;5115590;28;20206;-76
2021/12/05 06:25:49;;;;;;;8.47;2.20;;;;;;;-145.69;100.00;71876.00;5114925;28;20229;-75
2021/12/05 06:28:19;;;;;;;3.27;1.57;;;;;;;-145.69;100.00;71874.03;5115176;28;20208;-76
2021/12/05 06:30:53;;;;;;;7.97;2.03;;;;;;;-145.69;100.00;71880.00;5115295;28;20656;-76
2021/12/05 06:39:22;;;;;;;5.13;1.50;;;;;;;-145.69;100.00;71895.91;5115141;28;20204;-76
2021/12/05 06:42:01;;;;;;;5.53;1.23;;;;;;;-145.69;100.00;71917.81;5115548;28;20236;-75
2021/12/05 06:47:14;;;;;;;6.03;2.07;;;;;;;-145.69;100.00;71899.88;5115175;28;20671;-75
2021/12/05 06:49:42;;;;;;;9.30;2.60;;;;;;;-145.69;100.00;71903.88;5115322;28;20193;-76
2021/12/05 06:52:09;;;;;;;11.23;2.83;;;;;;;-145.69;100.00;71909.84;5115308;28;20721;-76
2021/12/05 06:54:37;;;;;;;15.37;2.77;;;;;;;-145.69;100.00;71903.88;5114867;28;20193;-75
2021/12/05 06:57:04;;;;;;;9.90;3.00;;;;;;;-145.69;100.00;71893.91;5115181;28;20208;-76
2021/12/05 06:59:31;;;;;;;5.80;1.87;;;;;;;-145.69;100.00;71891.94;5115088;28;20205;-76
2021/12/05 07:01:58;;;;;;;10.77;2.90;;;;;;;-145.69;100.00;71883.97;5114818;28;20221;-76
2021/12/05 07:07:17;;;;;;;21.90;9.07;;;;;;;-145.69;100.00;71899.88;5093386;28;20552;-76
2021/12/05 07:09:43;;;;;;;11.50;3.23;;;;;;;-145.69;100.00;71895.91;5114828;28;20200;-74
2021/12/05 07:12:42;;;;;;;8.60;3.60;;;;;;;-145.69;100.00;71901.88;5114462;28;20717;-76
2021/12/05 07:15:10;;;;;;;13.90;5.10;;;;;;;-145.69;100.00;71895.91;5114538;28;20561;-76
2021/12/05 07:20:22;;;;;;;5.87;2.73;;;;;;;-145.69;100.00;71880.00;5114178;28;20237;-76
2021/12/05 07:23:04;;;;;;;7.97;2.17;;;;;;;-145.69;100.00;71872.03;5113941;28;20205;-76
2021/12/05 07:25:40;;;;;;;5.70;1.93;;;;;;;-145.69;100.00;71880.00;5114562;28;20282;-75
2021/12/05 07:41:55;;;;;;;10.77;2.63;;;;;;;-145.69;100.00;71860.09;5134626;27;20666;-76
2021/12/05 07:44:21;;;;;;;18.83;6.10;;;;;;;-145.69;100.00;71868.06;5134797;27;20287;-76
2021/12/05 07:46:48;;;;;;;6.03;2.07;;;;;;;-145.69;100.00;71874.03;5134644;27;20273;-76
2021/12/05 07:49:17;;;;;;;6.60;2.93;;;;;;;-145.69;100.00;71876.00;5134656;27;20568;-75
2021/12/05 07:51:47;;;;;;;42.73;18.90;;;;;;;-145.69;100.00;71872.03;5134665;27;20608;-76
2021/12/05 07:54:28;;;;;;;22.40;9.90;;;;;;;-145.69;100.00;71870.03;5134683;27;20196;-75
2021/12/05 07:57:03;;;;;;;7.63;4.03;;;;;;;-145.69;100.00;71870.03;5134622;27;20204;-75
2021/12/05 07:59:44;;;;;;;6.40;2.27;;;;;;;-145.69;100.00;71872.03;5134576;27;20224;-76
2021/12/05 08:16:00;;;;;;;5.83;1.80;;;;;;;-145.69;100.00;71828.25;5134323;27;20555;-75
2021/12/05 08:18:28;;;;;;;3.97;1.47;;;;;;;-145.69;100.00;71822.28;5134372;27;20651;-76
2021/12/05 08:20:55;;;;;;;6.73;1.93;;;;;;;-145.69;100.00;71820.28;5134062;27;20305;-75
2021/12/05 08:23:23;;;;;;;5.63;2.20;;;;;;;-145.69;100.00;71808.34;5134148;27;20208;-76
2021/12/05 08:25:58;;;;;;;11.03;3.73;;;;;;;-145.69;100.00;71808.34;5134168;27;20331;-75
2021/12/05 08:28:37;;;;;;;8.23;3.50;;;;;;;-145.69;100.00;71784.47;5133632;28;20196;-77
2021/12/05 08:31:12;;;;;;;5.97;2.77;;;;;;;-145.69;100.00;71780.50;5132897;28;20208;-76
2021/12/05 08:33:59;;;;;;;3.00;1.47;;;;;;;-145.69;100.00;71772.53;5134128;28;20199;-76
2021/12/05 08:36:59;;;;;;;3.72;1.52;;;;;;;-145.69;100.00;71766.56;5133039;28;20434;-77
2021/12/05 09:21:24;;;;;;;4.03;2.10;;;;;;;-145.69;100.00;71696.91;5137632;27;20734;-77
2021/12/05 09:27:01;;;;;;;3.60;1.53;;;;;;;-145.69;100.00;71720.78;5111563;27;20265;-76
2021/12/05 09:29:57;;;;;;;13.30;3.67;;;;;;;-145.69;100.00;71732.72;5137351;27;20200;-75
2021/12/05 10:03:06;;;;;;;9.77;4.10;;;;;;;-145.69;100.00;71657.09;5137109;27;20686;-76
2021/12/05 10:08:45;;;;;;;34.40;13.13;;;;;;;-145.69;100.00;71635.22;5136572;27;20196;-77
2021/12/05 10:16:58;;;;;;;3.83;1.13;;;;;;;-145.69;100.00;71645.16;5125255;27;20543;-76
2021/12/05 10:34:10;;;;;;;2.80;1.70;;;;;;;-145.69;100.00;71619.28;5093093;28;20219;-76
2021/12/05 10:36:40;;;;;;;6.60;1.20;;;;;;;-145.69;100.00;71589.44;5092997;28;20216;-75
2021/12/05 10:39:11;;;;;;;1.43;0.90;;;;;;;-145.69;100.00;71595.41;5104036;27;20291;-76
2021/12/05 10:41:59;;;;;;;5.87;1.13;;;;;;;-145.69;100.00;71577.50;5136133;27;20258;-75
2021/12/05 10:44:25;;;;;;;4.67;1.53;;;;;;;-145.69;100.00;71557.59;5135906;27;20226;-76
2021/12/05 10:46:52;;;;;;;2.93;1.33;;;;;;;-145.69;100.00;71545.66;5135438;27;20228;-75
2021/12/05 10:49:19;;;;;;;4.03;1.87;;;;;;;-145.69;100.00;71537.72;5135982;27;20250;-76
2021/12/05 10:51:49;;;;;;;5.90;2.17;;;;;;;-145.69;100.00;71529.75;5134477;27;20197;-76
2021/12/05 10:54:17;;;;;;;4.13;1.10;;;;;;;-145.69;100.00;71533.72;5135996;27;20242;-76
2021/12/05 10:56:47;;;;;;;9.67;1.60;;;;;;;-145.69;100.00;71511.84;5135680;27;20232;-76
2021/12/05 10:59:17;;;;;;;1.73;1.10;;;;;;;-145.69;99.86;71483.97;5135755;27;20199;-75
2021/12/05 11:01:46;;;;;;;2.80;1.00;;;;;;;-145.69;98.85;71497.91;5134549;27;20200;-75
2021/12/05 11:04:15;;;;;;;5.63;1.97;;;;;;;-145.69;100.00;71480.00;5135458;27;20646;-76
2021/12/05 11:06:49;;;;;;;11.43;1.93;;;;;;;-145.69;97.27;71458.09;5135282;27;20629;-76
2021/12/05 11:09:21;;;;;;;5.87;1.50;;;;;;;-145.69;99.08;71426.28;5135561;27;20650;-76
2021/12/05 11:11:51;;;;;;;1.77;1.07;;;;;;;-145.69;91.15;71434.22;5135501;27;20287;-75
2021/12/05 11:14:19;;;;;;;3.00;0.90;;;;;;;-145.69;96.52;71442.19;5135092;27;20651;-77
2021/12/05 11:16:58;;;;;;;3.23;0.87;;;;;;;-145.69;99.13;71420.31;5135595;27;20273;-77
2021/12/05 11:19:30;;;;;;;4.33;1.83;;;;;;;-145.69;97.01;71438.22;5135544;27;20203;-77
2021/12/05 11:22:00;;;;;;;1.20;0.80;;;;;;;-145.69;86.10;71483.97;5135765;27;20249;-77
2021/12/05 11:24:32;;;;;;;5.30;1.10;;;;;;;-145.69;94.78;71458.09;5135106;27;20200;-77
2021/12/05 11:27:12;;;;;;;4.67;0.90;;;;;;;-145.69;97.20;71440.19;5135391;27;20578;-77
2021/12/05 11:29:52;;;;;;;5.80;1.10;;;;;;;-145.69;96.61;71442.19;5121207;27;20590;-77
2021/12/05 11:32:23;;;;;;;5.60;0.90;;;;;;;-145.69;93.34;71456.13;5114448;28;20540;-77
2021/12/05 11:34:50;;;;;;;1.80;0.90;;;;;;;-145.69;95.85;71434.22;5114267;28;20296;-76
2021/12/05 11:37:16;;;;;;;4.33;1.00;;;;;;;-145.69;96.27;71390.47;5114389;28;20201;-76
2021/12/05 11:39:44;;;;;;;3.87;1.03;;;;;;;-145.69;96.14;71320.81;5114592;28;20250;-76
2021/12/05 11:42:18;;;;;;;1.50;0.97;;;;;;;-145.69;89.92;71318.81;5114320;28;20292;-76
2021/12/05 11:44:48;;;;;;;4.50;1.05;;;;;;;-145.69;84.63;71314.84;5113358;28;20435;-76
2021/12/05 11:47:17;;;;;;;2.60;1.10;;;;;;;-145.69;91.13;71322.81;5109952;27;20228;-76
2021/12/05 11:49:43;;;;;;;2.50;1.00;;;;;;;-145.69;93.01;71283.00;5117370;27;20193;-76
2021/12/05 11:52:11;;;;;;;4.43;1.10;;;;;;;-145.69;89.09;71322.81;5122088;27;20197;-76
2021/12/05 11:54:40;;;;;;;1.90;0.70;;;;;;;-145.69;87.92;71326.78;5126719;27;20230;-76
2021/12/05 11:57:13;;;;;;;4.80;1.73;;;;;;;-145.69;89.13;71326.78;5123863;27;20617;-76
2021/12/05 11:59:41;;;;;;;3.10;1.10;;;;;;;-145.69;89.76;71288.97;5121457;27;20204;-76
2021/12/05 12:02:11;;;;;;;2.63;1.20;;;;;;;-145.69;86.74;71316.84;5127308;27;20246;-76
2021/12/05 12:04:49;;;;;;;3.07;0.83;;;;;;;-145.69;89.83;71348.66;5129316;27;20189;-75
2021/12/05 12:07:27;;;;;;;7.97;0.90;;;;;;;-145.69;91.87;71344.69;5125663;27;20264;-75
2021/12/05 12:09:56;;;;;;;2.20;0.63;;;;;;;-145.69;90.13;71334.75;5126639;27;20200;-76
2021/12/05 12:12:24;;;;;;;7.73;1.20;;;;;;;-145.69;91.81;71320.81;5126412;27;20201;-76
2021/12/05 12:14:51;;;;;;;3.20;1.00;;;;;;;-145.69;87.25;71330.75;5126747;27;20201;-76
2021/12/05 12:17:18;;;;;;;4.43;0.90;;;;;;;-145.69;90.08;71310.84;5124606;27;20552;-76
2021/12/05 12:19:47;;;;;;;4.00;1.13;;;;;;;-145.69;89.53;71306.88;5130614;27;20209;-76
2021/12/05 12:22:16;;;;;;;5.27;2.70;;;;;;;-145.69;91.51;71239.22;5124113;27;20735;-75
2021/12/05 12:24:43;;;;;;;2.83;0.80;;;;;;;-145.69;85.47;71277.03;5132579;27;20200;-76
2021/12/05 12:27:12;;;;;;;4.30;1.00;;;;;;;-145.69;89.55;71320.81;5131407;27;20707;-76
2021/12/05 12:29:40;;;;;;;3.43;1.13;;;;;;;-145.69;87.58;71406.38;5134853;27;20200;-75
2021/12/05 12:32:12;;;;;;;5.70;1.00;;;;;;;-145.69;93.24;71406.38;5128800;27;20279;-75
2021/12/05 12:34:40;;;;;;;4.13;1.00;;;;;;;-145.69;90.50;71386.47;5129758;27;20239;-75
2021/12/05 12:37:08;;;;;;;7.13;1.10;;;;;;;-145.69;91.58;71394.44;5121522;27;20566;-75
2021/12/05 12:39:37;;;;;;;2.47;1.10;;;;;;;-145.69;92.49;71384.47;5130093;27;20207;-75
2021/12/05 12:42:16;;;;;;;3.07;1.00;;;;;;;-145.69;91.37;71370.56;5124798;28;20214;-75
2021/12/05 12:45:08;;;;;;;5.57;1.57;;;;;;;-145.69;90.77;71346.69;5119688;27;20203;-75
2021/12/05 12:47:38;;;;;;;8.47;2.50;;;;;;;-145.69;89.31;71324.78;5116120;27;20697;-76
2021/12/05 12:50:21;;;;;;;7.40;2.53;;;;;;;-145.69;91.48;71318.81;5121772;28;20205;-75
2021/12/05 12:52:57;;;;;;;9.33;2.70;;;;;;;-145.69;88.74;71290.97;5120125;27;20200;-76
2021/12/05 12:55:28;;;;;;;5.33;2.07;;;;;;;-145.69;90.51;71279.03;5116478;28;20196;-75
2021/12/05 12:57:54;;;;;;;14.27;4.00;;;;;;;-145.69;87.38;71290.97;5124661;27;20753;-76
2021/12/05 13:00:25;;;;;;;8.33;1.67;;;;;;;-145.69;87.33;71344.69;5123938;27;20202;-76
2021/12/05 13:02:58;;;;;;;4.10;1.50;;;;;;;-145.69;88.78;71362.59;5123408;27;20193;-75
2021/12/05 13:05:51;;;;;;;2.53;1.03;;;;;;;-145.69;87.61;71346.69;5127458;27;20313;-76
2021/12/05 13:11:10;;;;;;;5.20;1.20;;;;;;;-145.69;88.97;71332.75;5126279;27;20261;-75
2021/12/05 13:13:40;;;;;;;4.67;1.10;;;;;;;-145.69;90.76;71336.72;5122012;27;20189;-75
2021/12/05 13:16:17;;;;;;;2.47;1.03;;;;;;;-145.69;87.53;71374.53;5124251;27;20185;-76
2021/12/05 13:18:45;;;;;;;3.57;0.90;;;;;;;-145.69;88.31;71416.31;5125039;27;20199;-75
2021/12/05 13:21:16;;;;;;;3.43;1.10;;;;;;;-145.69;88.67;71444.19;5127466;27;20252;-76
2021/12/05 13:23:45;;;;;;;2.13;1.17;;;;;;;-145.69;87.54;71452.16;5121015;27;20431;-76
2021/12/05 13:26:23;;;;;;;4.37;1.57;;;;;;;-145.69;90.40;71446.16;5124967;27;21237;-76
2021/12/05 13:28:53;;;;;;;5.63;1.43;;;;;;;-145.69;92.87;71436.22;5126644;27;20204;-75
2021/12/05 13:31:59;;;;;;;2.10;1.07;;;;;;;-145.69;91.35;71400.41;5130615;27;20262;-75
2021/12/05 13:34:51;;;;;;;4.53;1.10;;;;;;;-145.69;87.46;71428.25;5132685;27;20192;-75
2021/12/05 13:37:27;;;;;;;4.00;1.20;;;;;;;-145.69;91.22;71408.38;5134070;27;20208;-76
2021/12/05 13:39:55;;;;;;;3.00;1.40;;;;;;;-145.69;89.01;71418.31;5125551;27;20640;-75
2021/12/05 13:42:28;;;;;;;3.87;1.40;;;;;;;-145.69;89.52;71422.28;5122071;27;20254;-75
2021/12/05 13:45:05;;;;;;;5.07;1.40;;;;;;;-145.69;91.45;71478.00;5124559;27;20189;-75
2021/12/05 13:47:37;;;;;;;3.63;1.73;;;;;;;-145.69;91.75;71470.06;5123164;27;20227;-75
2021/12/05 13:50:31;;;;;;;5.63;2.00;;;;;;;-145.69;93.94;71460.09;5118612;27;20209;-75
2021/12/05 13:53:14;;;;;;;6.13;2.23;;;;;;;-145.69;94.31;71472.03;5123017;27;20223;-75
2021/12/05 13:55:43;;;;;;;6.70;1.37;;;;;;;-145.69;93.00;71470.06;5124402;27;20213;-75
2021/12/05 13:58:28;;;;;;;2.67;1.27;;;;;;;-145.69;89.77;71440.19;5124796;27;20197;-75
2021/12/05 14:01:01;;;;;;;4.23;1.40;;;;;;;-145.69;88.48;71402.41;5131220;27;20284;-75
2021/12/05 14:03:50;;;;;;;8.40;2.60;;;;;;;-145.69;85.49;71366.56;5130212;27;20238;-76
2021/12/05 14:06:38;;;;;;;3.03;1.33;;;;;;;-145.69;87.16;71372.53;5123851;27;20197;-74
2021/12/05 14:09:12;;;;;;;2.60;1.40;;;;;;;-145.69;89.59;71350.66;5125122;27;20196;-74
2021/12/05 14:11:49;;;;;;;4.90;1.67;;;;;;;-145.69;87.60;71362.59;5124919;27;20233;-75
2021/12/05 14:14:17;;;;;;;3.63;1.40;;;;;;;-145.69;84.94;71358.63;5124532;27;20204;-75
2021/12/05 14:16:45;;;;;;;4.17;1.47;;;;;;;-145.69;85.38;71362.59;5126951;27;20197;-74
2021/12/05 14:19:16;;;;;;;1.53;1.00;;;;;;;-145.69;85.82;71370.56;5122719;27;20257;-75
2021/12/05 14:21:50;;;;;;;5.63;1.10;;;;;;;-145.69;84.41;71396.44;5121661;27;20228;-74
2021/12/05 14:24:21;;;;;;;4.77;1.90;;;;;;;-145.69;83.84;71392.44;5125130;27;20196;-74
2021/12/05 14:26:49;;;;;;;3.27;1.03;;;;;;;-145.69;84.38;71420.31;5124994;27;20220;-75
2021/12/05 14:29:20;;;;;;;3.27;1.37;;;;;;;-145.69;87.51;71440.19;5130811;27;20196;-75
2021/12/05 14:31:50;;;;;;;3.97;1.50;;;;;;;-145.69;87.12;71440.19;5134054;27;20196;-75
2021/12/05 14:34:21;;;;;;;4.27;1.17;;;;;;;-145.69;87.00;71460.09;5127545;27;20202;-74
2021/12/05 14:36:53;;;;;;;5.20;1.70;;;;;;;-145.69;86.92;71485.97;5125723;27;20219;-76
2021/12/05 14:39:25;;;;;;;4.77;1.43;;;;;;;-145.69;88.75;71505.88;5121131;27;20296;-74
2021/12/05 14:41:55;;;;;;;5.47;1.63;;;;;;;-145.69;88.69;71511.84;5120989;27;20289;-73
2021/12/05 14:44:21;;;;;;;7.20;2.27;;;;;;;-145.69;90.68;71537.72;5124940;27;20216;-77
2021/12/05 14:46:51;;;;;;;6.60;2.90;;;;;;;-145.69;92.67;71557.59;5122954;27;20626;-74
2021/12/05 14:49:23;;;;;;;5.33;1.67;;;;;;;-145.69;92.81;71569.53;5123409;27;20224;-75
2021/12/05 14:51:53;;;;;;;4.13;1.70;;;;;;;-145.69;91.83;71569.53;5121270;27;20292;-74
2021/12/05 14:54:25;;;;;;;3.80;1.30;;;;;;;-145.69;92.60;71577.50;5125595;27;20189;-74
2021/12/05 14:56:55;;;;;;;1.57;1.23;;;;;;;-145.69;93.66;71615.31;5122215;27;20205;-76
2021/12/05 14:59:22;;;;;;;3.90;1.20;;;;;;;-145.69;95.41;71637.19;5125590;27;20236;-75
2021/12/05 15:01:54;;;;;;;6.83;1.30;;;;;;;-145.69;96.80;71643.19;5119521;27;20744;-76
2021/12/05 15:04:26;;;;;;;46.67;21.07;;;;;;;-145.69;100.00;71625.25;5118907;27;20196;-75
2021/12/05 15:06:53;;;;;;;6.63;3.47;;;;;;;-145.69;100.00;71641.19;5126534;27;20220;-75
2021/12/05 15:09:24;;;;;;;6.13;3.40;;;;;;;-145.69;100.00;71680.97;5127589;27;20655;-76
2021/12/05 15:11:57;;;;;;;1.50;1.23;;;;;;;-145.69;100.00;71704.88;5123801;27;20201;-76
2021/12/05 15:14:25;;;;;;;1.63;1.00;;;;;;;-145.69;100.00;71756.59;5124621;27;20193;-75
2021/12/05 15:16:54;;;;;;;4.20;1.47;;;;;;;-145.69;100.00;71796.41;5121144;27;20606;-75
2021/12/05 15:19:23;;;;;;;4.33;1.10;;;;;;;-145.69;100.00;71826.25;5123511;27;20266;-75
2021/12/05 15:21:49;;;;;;;1.23;0.97;;;;;;;-145.69;100.00;71846.16;5129328;27;20719;-75
2021/12/05 15:24:19;;;;;;;3.33;1.23;;;;;;;-145.69;100.00;71872.03;5127684;27;20193;-75
2021/12/05 15:26:46;;;;;;;4.77;1.17;;;;;;;-145.69;100.00;71889.94;5121171;27;20206;-75
2021/12/05 15:29:12;;;;;;;3.33;1.60;;;;;;;-145.69;100.00;71913.81;5121089;27;20639;-74
2021/12/05 15:31:42;;;;;;;2.93;1.60;;;;;;;-145.69;100.00;71939.69;5129444;27;20197;-74
2021/12/05 15:34:25;;;;;;;6.10;2.33;;;;;;;-145.69;100.00;71961.59;5124378;27;20524;-74
2021/12/05 15:36:53;;;;;;;2.13;1.10;;;;;;;-145.69;100.00;71971.53;5126883;27;20646;-74
2021/12/05 15:39:23;;;;;;;5.67;1.40;;;;;;;-145.69;100.00;71987.47;5127442;27;20189;-75